createdAt,value
2022-12-22T00:02:00.382Z,-0.53
2022-12-22T00:04:45.859Z,-0.55
2022-12-22T00:07:30.907Z,-0.59
2022-12-22T00:10:16.254Z,-0.62
2022-12-22T00:13:01.752Z,-0.63
2022-12-22T00:15:51.075Z,-0.62
2022-12-22T00:18:36.804Z,-0.58
2022-12-22T00:21:21.978Z,-0.55
2022-12-22T00:24:07.553Z,-0.35
2022-12-22T00:26:55.073Z,-0.43
2022-12-22T00:29:40.490Z,-0.35
2022-12-22T00:32:32.684Z,-0.42
2022-12-22T00:35:18.648Z,-0.41
2022-12-22T00:38:04.268Z,-0.44
2022-12-22T00:40:49.720Z,-0.39
2022-12-22T00:43:35.006Z,-0.37
2022-12-22T00:46:22.381Z,-0.41
2022-12-22T00:49:08.163Z,-0.45
2022-12-22T00:51:53.595Z,-0.44
2022-12-22T00:54:39.350Z,-0.44
2022-12-22T00:57:24.771Z,-0.48
2022-12-22T01:00:13.159Z,-0.55
2022-12-22T01:02:58.322Z,-0.51
2022-12-22T01:05:43.591Z,-0.50
2022-12-22T01:08:30.583Z,-0.49
2022-12-22T01:11:15.936Z,-0.48
2022-12-22T01:14:01.411Z,-0.48
2022-12-22T01:16:46.944Z,-0.46
2022-12-22T01:19:32.274Z,-0.43
2022-12-22T01:22:17.785Z,-0.45
2022-12-22T01:25:04.449Z,-0.44
2022-12-22T01:27:49.997Z,-0.44
2022-12-22T01:30:35.483Z,-0.50
2022-12-22T01:33:20.868Z,-0.50
2022-12-22T01:36:06.214Z,-0.47
2022-12-22T01:38:51.819Z,-0.46
2022-12-22T01:41:39.931Z,-0.42
2022-12-22T01:44:36.316Z,-0.33
2022-12-22T01:47:46.562Z,-0.30
2022-12-22T01:50:32.720Z,-0.31
2022-12-22T01:53:20.044Z,-0.28
2022-12-22T01:56:06.139Z,-0.30
2022-12-22T01:58:56.037Z,-0.33
2022-12-22T02:01:41.829Z,-0.33
2022-12-22T02:04:27.447Z,-0.41
2022-12-22T02:07:22.637Z,-0.41
2022-12-22T02:10:19.895Z,-0.37
2022-12-22T02:13:26.502Z,-0.37
2022-12-22T02:16:29.718Z,-0.38
2022-12-22T02:19:30.241Z,-0.40
2022-12-22T02:22:24.675Z,-0.44
2022-12-22T02:25:20.006Z,-0.36
2022-12-22T02:28:07.623Z,-0.31
2022-12-22T02:30:53.312Z,-0.33
2022-12-22T02:33:40.581Z,-0.33
2022-12-22T02:36:39.534Z,-0.31
2022-12-22T02:39:50.680Z,-0.29
2022-12-22T02:42:53.236Z,-0.28
2022-12-22T02:45:56.927Z,-0.33
2022-12-22T02:48:51.469Z,-0.31
2022-12-22T02:51:41.078Z,-0.31
2022-12-22T02:54:27.318Z,-0.27
2022-12-22T02:57:12.880Z,-0.29
2022-12-22T02:59:58.146Z,-0.31
2022-12-22T03:02:43.533Z,-0.33
2022-12-22T03:05:29.056Z,-0.28
2022-12-22T03:08:14.614Z,-0.26
2022-12-22T03:11:00.112Z,-0.09
2022-12-22T03:13:45.440Z,-0.19
2022-12-22T03:16:30.915Z,-0.24
2022-12-22T03:19:16.791Z,-0.19
2022-12-22T03:22:02.375Z,-0.22
2022-12-22T03:24:47.749Z,-0.22
2022-12-22T03:27:14.588Z,-0.17
2022-12-22T03:29:41.408Z,-0.15
2022-12-22T03:32:08.303Z,-0.22
2022-12-22T03:34:35.126Z,-0.26
2022-12-22T03:37:01.911Z,-0.26
2022-12-22T03:39:28.680Z,-0.29
2022-12-22T03:42:13.896Z,-0.17
2022-12-22T03:44:59.230Z,-0.21
2022-12-22T03:47:26.096Z,-0.22
2022-12-22T03:49:52.818Z,-0.18
2022-12-22T03:52:19.609Z,-0.18
2022-12-22T03:54:46.378Z,-0.06
2022-12-22T03:57:13.156Z,-0.09
2022-12-22T03:59:40.011Z,-0.19
2022-12-22T04:02:07.427Z,-0.20
2022-12-22T04:04:34.364Z,-0.17
2022-12-22T04:07:01.158Z,-0.20
2022-12-22T04:09:29.321Z,-0.18
2022-12-22T04:12:14.789Z,-0.13
2022-12-22T04:14:41.533Z,-0.06
2022-12-22T04:17:08.382Z,-0.06
2022-12-22T04:19:35.276Z,-0.11
2022-12-22T04:22:02.188Z,-0.19
2022-12-22T04:24:29.185Z,-0.16
2022-12-22T04:26:56.009Z,-0.20
2022-12-22T04:29:22.912Z,-0.16
2022-12-22T04:31:49.804Z,-0.19
2022-12-22T04:34:16.570Z,-0.19
2022-12-22T04:36:43.439Z,-0.24
2022-12-22T04:39:10.273Z,-0.24
2022-12-22T04:41:37.065Z,-0.16
2022-12-22T04:44:04.667Z,-0.14
2022-12-22T04:46:33.479Z,-0.15
2022-12-22T04:49:00.833Z,-0.16
2022-12-22T04:51:28.704Z,-0.15
2022-12-22T04:53:56.088Z,-0.17
2022-12-22T04:56:22.823Z,-0.15
2022-12-22T04:58:49.751Z,-0.15
2022-12-22T05:01:18.790Z,-0.19
2022-12-22T05:03:46.221Z,-0.16
2022-12-22T05:06:13.321Z,-0.20
2022-12-22T05:08:40.139Z,-0.20
2022-12-22T05:11:07.557Z,-0.22
2022-12-22T05:13:34.812Z,-0.23
2022-12-22T05:16:09.362Z,-0.18
2022-12-22T05:18:38.088Z,-0.19
2022-12-22T05:21:08.333Z,-0.20
2022-12-22T05:23:35.103Z,-0.18
2022-12-22T05:26:01.876Z,-0.18
2022-12-22T05:28:28.764Z,-0.18
2022-12-22T05:30:55.793Z,-0.19
2022-12-22T05:33:22.611Z,-0.19
2022-12-22T05:35:49.506Z,-0.14
2022-12-22T05:38:16.293Z,-0.13
2022-12-22T05:40:43.135Z,-0.16
2022-12-22T05:43:10.301Z,-0.18
2022-12-22T05:45:37.081Z,-0.16
2022-12-22T05:48:04.036Z,-0.16
2022-12-22T05:50:31.803Z,-0.19
2022-12-22T05:53:04.474Z,-0.20
2022-12-22T05:55:31.448Z,-0.18
2022-12-22T05:58:01.863Z,-0.20
2022-12-22T06:00:31.430Z,-0.18
2022-12-22T06:02:58.971Z,-0.17
2022-12-22T06:05:26.242Z,-0.14
2022-12-22T06:07:53.222Z,-0.10
2022-12-22T06:10:20.023Z,-0.09
2022-12-22T06:12:46.782Z,-0.12
2022-12-22T06:15:14.960Z,-0.08
2022-12-22T06:17:44.747Z,-0.10
2022-12-22T06:20:12.974Z,-0.11
2022-12-22T06:22:39.812Z,-0.13
2022-12-22T06:25:06.932Z,-0.10
2022-12-22T06:27:33.677Z,-0.08
2022-12-22T06:30:00.528Z,-0.11
2022-12-22T06:32:27.474Z,-0.08
2022-12-22T06:34:54.298Z,-0.02
2022-12-22T06:37:21.077Z,-0.03
2022-12-22T06:39:47.888Z,0.00
2022-12-22T06:42:33.229Z,-0.03
2022-12-22T06:45:00.158Z,0.03
2022-12-22T06:47:26.970Z,0.05
2022-12-22T06:49:53.708Z,0.08
2022-12-22T06:52:20.429Z,0.05
2022-12-22T06:54:47.252Z,0.04
2022-12-22T06:57:14.217Z,0.04
2022-12-22T06:59:41.081Z,-0.03
2022-12-22T07:02:10.469Z,0.02
2022-12-22T07:04:37.434Z,-0.03
2022-12-22T07:07:04.293Z,-0.07
2022-12-22T07:09:31.112Z,0.01
2022-12-22T07:11:58.228Z,0.06
2022-12-22T07:14:25.009Z,0.07
2022-12-22T07:16:51.907Z,0.12
2022-12-22T07:19:18.947Z,0.10
2022-12-22T07:21:48.062Z,0.05
2022-12-22T07:24:16.694Z,0.10
2022-12-22T07:26:43.489Z,0.14
2022-12-22T07:29:10.403Z,0.20
2022-12-22T07:31:37.178Z,0.14
2022-12-22T07:34:03.975Z,0.17
2022-12-22T07:36:30.731Z,0.15
2022-12-22T07:38:57.472Z,0.19
2022-12-22T07:41:42.736Z,0.19
2022-12-22T07:44:09.616Z,0.20
2022-12-22T07:46:48.255Z,0.23
2022-12-22T07:49:33.604Z,0.31
2022-12-22T07:52:00.540Z,0.27
2022-12-22T07:54:28.412Z,0.28
2022-12-22T07:56:55.519Z,0.30
2022-12-22T07:59:22.659Z,0.32
2022-12-22T08:01:49.701Z,0.32
2022-12-22T08:04:17.171Z,0.34
2022-12-22T08:06:44.540Z,0.37
2022-12-22T08:09:15.268Z,0.39
2022-12-22T08:11:58.123Z,0.45
2022-12-22T08:14:28.143Z,0.53
2022-12-22T08:16:54.958Z,0.57
2022-12-22T08:19:21.735Z,0.61
2022-12-22T08:21:52.971Z,0.73
2022-12-22T08:24:21.289Z,0.80
2022-12-22T08:26:53.023Z,0.91
2022-12-22T08:29:24.844Z,0.99
2022-12-22T08:31:51.829Z,1.04
2022-12-22T08:34:18.654Z,1.09
2022-12-22T08:36:52.926Z,1.15
2022-12-22T08:39:22.062Z,1.28
2022-12-22T08:41:52.219Z,1.37
2022-12-22T08:44:19.095Z,1.48
2022-12-22T08:46:46.065Z,1.54
2022-12-22T08:49:13.387Z,1.72
2022-12-22T08:51:40.233Z,1.77
2022-12-22T08:54:07.252Z,1.81
2022-12-22T08:56:34.855Z,1.87
2022-12-22T08:59:05.522Z,1.96
2022-12-22T09:01:33.392Z,2.02
2022-12-22T09:04:00.697Z,2.02
2022-12-22T09:06:29.811Z,2.07
2022-12-22T09:09:02.614Z,2.11
2022-12-22T09:11:30.469Z,2.09
2022-12-22T09:13:59.842Z,1.99
2022-12-22T09:16:28.759Z,2.13
2022-12-22T09:18:56.067Z,2.24
2022-12-22T09:21:23.936Z,2.29
2022-12-22T09:23:50.666Z,2.44
2022-12-22T09:26:20.873Z,2.54
2022-12-22T09:28:50.372Z,2.61
2022-12-22T09:31:18.957Z,2.76
2022-12-22T09:33:46.220Z,2.85
2022-12-22T09:36:16.741Z,2.93
2022-12-22T09:38:43.902Z,2.95
2022-12-22T09:41:23.452Z,2.88
2022-12-22T09:43:50.422Z,2.87
2022-12-22T09:46:23.276Z,2.85
2022-12-22T09:48:50.499Z,2.83
2022-12-22T09:51:24.443Z,2.88
2022-12-22T09:53:57.997Z,3.11
2022-12-22T09:56:27.273Z,3.18
2022-12-22T09:58:54.171Z,3.27
2022-12-22T10:01:28.488Z,3.33
2022-12-22T10:04:03.015Z,3.39
2022-12-22T10:07:02.399Z,3.51
2022-12-22T10:12:22.010Z,3.47
2022-12-22T10:14:51.912Z,3.50
2022-12-22T10:17:21.898Z,3.56
2022-12-22T10:19:51.122Z,3.63
2022-12-22T10:22:46.664Z,3.65
2022-12-22T10:25:27.259Z,3.70
2022-12-22T10:28:03.226Z,3.71
2022-12-22T10:30:34.299Z,3.75
2022-12-22T10:33:13.551Z,3.78
2022-12-22T10:35:46.414Z,3.88
2022-12-22T10:38:38.109Z,4.13
2022-12-22T10:41:18.479Z,4.30
2022-12-22T10:43:50.280Z,4.57
2022-12-22T10:46:33.688Z,4.07
2022-12-22T10:52:17.125Z,3.69
2022-12-22T10:54:45.706Z,3.38
2022-12-22T10:57:16.653Z,3.43
2022-12-22T10:59:58.443Z,3.61
2022-12-22T11:02:32.862Z,3.90
2022-12-22T11:05:12.458Z,4.27
2022-12-22T11:07:41.754Z,4.39
2022-12-22T11:10:14.779Z,4.45
2022-12-22T11:12:44.713Z,4.49
2022-12-22T11:15:24.627Z,4.89
2022-12-22T11:17:51.713Z,6.66
2022-12-22T11:20:34.882Z,8.53
2022-12-22T11:23:33.833Z,8.82
2022-12-22T11:26:11.512Z,9.19
2022-12-22T11:28:59.971Z,10.11
2022-12-22T11:31:49.592Z,10.60
2022-12-22T11:35:04.651Z,9.89
2022-12-22T11:37:39.283Z,10.21
2022-12-22T11:40:33.045Z,8.31
2022-12-22T11:43:21.491Z,6.93
2022-12-22T11:46:02.350Z,5.96
2022-12-22T11:49:00.711Z,5.58
2022-12-22T11:51:33.671Z,4.98
2022-12-22T11:54:10.902Z,4.31
2022-12-22T11:56:42.109Z,3.59
2022-12-22T11:59:27.541Z,3.22
2022-12-22T12:02:21.792Z,3.02
2022-12-22T12:05:00.549Z,2.93
2022-12-22T12:07:30.096Z,2.78
2022-12-22T12:10:14.067Z,2.91
2022-12-22T12:12:59.467Z,2.82
2022-12-22T12:15:32.548Z,2.77
2022-12-22T12:18:37.005Z,2.76
2022-12-22T12:21:18.177Z,2.78
2022-12-22T12:24:13.034Z,3.23
2022-12-22T12:26:56.503Z,3.40
2022-12-22T12:29:37.419Z,5.04
2022-12-22T12:32:18.725Z,4.50
2022-12-22T12:34:52.087Z,4.01
2022-12-22T12:37:29.026Z,3.80
2022-12-22T12:39:58.832Z,3.80
2022-12-22T12:42:42.234Z,3.57
2022-12-22T12:45:44.515Z,3.52
2022-12-22T12:48:31.498Z,3.62
2022-12-22T12:50:59.185Z,3.70
2022-12-22T12:53:27.815Z,3.56
2022-12-22T12:55:57.476Z,3.42
2022-12-22T12:58:39.840Z,3.40
2022-12-22T13:01:19.199Z,3.10
2022-12-22T13:04:03.133Z,2.97
2022-12-22T13:06:49.442Z,2.72
2022-12-22T13:09:49.286Z,2.55
2022-12-22T13:12:53.514Z,2.43
2022-12-22T13:15:34.989Z,2.22
2022-12-22T13:18:05.569Z,2.18
2022-12-22T13:20:35.343Z,2.18
2022-12-22T13:23:10.100Z,2.16
2022-12-22T13:25:45.426Z,2.11
2022-12-22T13:28:17.412Z,1.96
2022-12-22T13:30:56.966Z,2.01
2022-12-22T13:33:27.138Z,1.97
2022-12-22T13:35:58.712Z,1.87
2022-12-22T13:38:37.671Z,1.79
2022-12-22T13:41:13.485Z,1.82
2022-12-22T13:43:44.474Z,1.75
2022-12-22T13:46:11.500Z,1.73
2022-12-22T13:48:45.585Z,1.74
2022-12-22T13:51:25.714Z,1.71
2022-12-22T13:54:09.820Z,1.71
2022-12-22T13:56:42.866Z,1.69
2022-12-22T13:59:24.691Z,1.71
2022-12-22T14:01:57.674Z,1.65
2022-12-22T14:04:24.777Z,1.72
2022-12-22T14:06:51.983Z,1.68
2022-12-22T14:09:21.623Z,1.68
2022-12-22T14:12:00.280Z,1.75
2022-12-22T14:14:42.511Z,1.70
2022-12-22T14:17:31.069Z,1.71
2022-12-22T14:20:00.682Z,1.65
2022-12-22T14:22:35.913Z,1.60
2022-12-22T14:25:21.870Z,1.59
2022-12-22T14:27:54.555Z,1.57
2022-12-22T14:30:22.839Z,1.54
2022-12-22T14:32:55.393Z,1.58
2022-12-22T14:35:22.810Z,1.59
2022-12-22T14:38:07.326Z,1.57
2022-12-22T14:40:44.603Z,1.60
2022-12-22T14:43:17.395Z,1.61
2022-12-22T14:45:49.254Z,1.59
2022-12-22T14:48:32.236Z,1.60
2022-12-22T14:50:59.886Z,1.61
2022-12-22T14:53:35.279Z,1.59
2022-12-22T14:56:02.166Z,1.58
2022-12-22T14:58:35.145Z,1.56
2022-12-22T15:01:29.231Z,1.55
2022-12-22T15:04:05.303Z,1.57
2022-12-22T15:06:34.672Z,1.59
2022-12-22T15:09:13.593Z,1.58
2022-12-22T15:11:46.449Z,1.55
2022-12-22T15:14:20.550Z,1.56
2022-12-22T15:16:47.952Z,1.61
2022-12-22T15:19:17.377Z,1.62
2022-12-22T15:21:44.612Z,1.65
2022-12-22T15:24:12.584Z,1.70
2022-12-22T15:26:39.512Z,1.76
2022-12-22T15:29:06.259Z,1.76
2022-12-22T15:31:33.540Z,1.78
2022-12-22T15:34:02.680Z,1.76
2022-12-22T15:36:29.598Z,1.75
2022-12-22T15:38:56.438Z,1.73
2022-12-22T15:41:23.265Z,1.67
2022-12-22T15:43:58.966Z,1.66
2022-12-22T15:46:26.343Z,1.62
2022-12-22T15:48:53.126Z,1.60
2022-12-22T15:51:26.783Z,1.61
2022-12-22T15:53:55.118Z,1.61
2022-12-22T15:56:25.110Z,1.63
2022-12-22T15:58:52.723Z,1.64
2022-12-22T16:01:19.530Z,1.66
2022-12-22T16:03:46.556Z,1.66
2022-12-22T16:06:16.133Z,1.64
2022-12-22T16:08:49.545Z,1.62
2022-12-22T16:11:17.321Z,1.59
2022-12-22T16:13:44.649Z,1.60
2022-12-22T16:16:12.163Z,1.59
2022-12-22T16:18:39.040Z,1.61
2022-12-22T16:21:31.389Z,1.61
2022-12-22T16:24:00.520Z,1.60
2022-12-22T16:26:27.775Z,1.65
2022-12-22T16:28:54.891Z,1.64
2022-12-22T16:31:24.123Z,1.62
2022-12-22T16:33:51.641Z,1.62
2022-12-22T16:36:19.078Z,1.64
2022-12-22T16:38:47.506Z,1.66
2022-12-22T16:41:25.187Z,1.71
2022-12-22T16:43:59.476Z,1.69
2022-12-22T16:46:30.815Z,1.67
2022-12-22T16:49:01.120Z,1.63
2022-12-22T16:51:37.389Z,1.59
2022-12-22T16:54:04.680Z,1.58
2022-12-22T16:56:32.193Z,1.59
2022-12-22T16:59:00.875Z,1.57
2022-12-22T17:01:57.511Z,1.55
2022-12-22T17:04:28.761Z,1.56
2022-12-22T17:06:58.357Z,1.56
2022-12-22T17:09:31.173Z,1.57
2022-12-22T17:12:01.037Z,1.57
2022-12-22T17:14:32.804Z,1.59
2022-12-22T17:16:59.824Z,1.61
2022-12-22T17:19:26.525Z,1.61
2022-12-22T17:21:55.206Z,1.63
2022-12-22T17:24:27.760Z,1.64
2022-12-22T17:27:01.155Z,1.66
2022-12-22T17:29:28.417Z,1.70
2022-12-22T17:31:56.809Z,1.67
2022-12-22T17:34:24.363Z,1.68
2022-12-22T17:36:51.629Z,1.70
2022-12-22T17:39:23.177Z,1.67
2022-12-22T17:41:56.259Z,1.66
2022-12-22T17:44:25.466Z,1.64
2022-12-22T17:46:52.631Z,1.69
2022-12-22T17:49:22.282Z,1.67
2022-12-22T17:51:49.758Z,1.67
2022-12-22T17:54:24.894Z,1.68
2022-12-22T17:56:54.057Z,1.66
2022-12-22T17:59:20.812Z,1.65
2022-12-22T18:01:47.877Z,1.63
2022-12-22T18:04:15.318Z,1.65
2022-12-22T18:06:42.642Z,1.68
2022-12-22T18:09:19.671Z,1.69
2022-12-22T18:11:46.717Z,1.70
2022-12-22T18:14:14.411Z,1.71
2022-12-22T18:16:42.450Z,1.71
2022-12-22T18:19:09.567Z,1.81
2022-12-22T18:21:36.603Z,1.80
2022-12-22T18:24:03.810Z,1.84
2022-12-22T18:26:31.682Z,1.86
2022-12-22T18:28:58.946Z,1.76
2022-12-22T18:31:26.124Z,1.70
2022-12-22T18:33:53.464Z,1.71
2022-12-22T18:36:31.223Z,1.70
2022-12-22T18:39:00.718Z,1.67
2022-12-22T18:41:32.189Z,1.65
2022-12-22T18:43:58.931Z,1.66
2022-12-22T18:46:25.738Z,1.67
2022-12-22T18:48:52.792Z,1.69
2022-12-22T18:51:25.463Z,1.71
2022-12-22T18:53:54.421Z,1.76
2022-12-22T18:56:22.111Z,1.81
2022-12-22T18:58:49.247Z,1.83
2022-12-22T19:01:27.009Z,1.83
2022-12-22T19:03:56.699Z,1.83
2022-12-22T19:06:23.907Z,1.82
2022-12-22T19:08:51.121Z,1.82
2022-12-22T19:11:23.139Z,1.80
2022-12-22T19:13:51.612Z,1.82
2022-12-22T19:16:23.027Z,1.85
2022-12-22T19:18:50.023Z,1.85
2022-12-22T19:21:18.529Z,1.87
2022-12-22T19:23:46.051Z,1.87
2022-12-22T19:26:30.967Z,1.89
2022-12-22T19:29:03.541Z,1.90
2022-12-22T19:31:33.350Z,1.88
2022-12-22T19:34:04.627Z,1.86
2022-12-22T19:36:33.331Z,1.87
2022-12-22T19:39:04.673Z,1.90
2022-12-22T19:41:45.446Z,1.88
2022-12-22T19:44:23.317Z,1.82
2022-12-22T19:46:51.111Z,1.74
2022-12-22T19:49:20.727Z,1.71
2022-12-22T19:51:48.457Z,1.72
2022-12-22T19:54:15.802Z,1.69
2022-12-22T19:56:46.629Z,1.64
2022-12-22T19:59:27.271Z,1.61
2022-12-22T20:01:57.265Z,1.56
2022-12-22T20:04:24.095Z,1.49
2022-12-22T20:06:50.977Z,1.48
2022-12-22T20:09:17.850Z,1.45
2022-12-22T20:11:45.120Z,1.43
2022-12-22T20:14:18.831Z,1.39
2022-12-22T20:16:45.818Z,1.41
2022-12-22T20:19:14.236Z,1.42
2022-12-22T20:21:41.568Z,1.44
2022-12-22T20:24:09.485Z,1.43
2022-12-22T20:26:36.271Z,1.38
2022-12-22T20:29:03.012Z,1.43
2022-12-22T20:31:29.853Z,1.38
2022-12-22T20:33:56.683Z,1.41
2022-12-22T20:36:31.933Z,1.41
2022-12-22T20:38:59.893Z,1.39
2022-12-22T20:41:27.109Z,1.48
2022-12-22T20:43:54.009Z,1.56
2022-12-22T20:46:27.194Z,1.63
2022-12-22T20:48:57.486Z,1.59
2022-12-22T20:51:27.950Z,1.57
2022-12-22T20:53:57.336Z,1.48
2022-12-22T20:56:34.062Z,1.40
2022-12-22T20:59:07.461Z,1.40
2022-12-22T21:01:34.378Z,1.36
2022-12-22T21:04:01.099Z,1.44
2022-12-22T21:06:30.602Z,1.47
2022-12-22T21:08:59.731Z,1.39
2022-12-22T21:11:27.823Z,1.33
2022-12-22T21:13:56.004Z,1.21
2022-12-22T21:16:26.051Z,1.17
2022-12-22T21:18:54.212Z,1.14
2022-12-22T21:21:21.932Z,1.10
2022-12-22T21:23:48.829Z,1.12
2022-12-22T21:26:21.562Z,1.10
2022-12-22T21:28:48.904Z,1.10
2022-12-22T21:31:15.674Z,1.06
2022-12-22T21:33:42.541Z,1.06
2022-12-22T21:36:19.713Z,1.07
2022-12-22T21:38:47.540Z,1.15
2022-12-22T21:41:14.367Z,1.14
2022-12-22T21:43:41.257Z,1.19
2022-12-22T21:46:12.896Z,1.21
2022-12-22T21:48:39.744Z,1.32
2022-12-22T21:51:06.601Z,1.16
2022-12-22T21:53:33.356Z,1.12
2022-12-22T21:56:00.083Z,1.21
2022-12-22T21:58:26.887Z,1.14
2022-12-22T22:00:53.589Z,1.14
2022-12-22T22:03:20.340Z,1.14
2022-12-22T22:05:48.107Z,1.15
2022-12-22T22:08:14.938Z,1.14
2022-12-22T22:10:43.590Z,1.07
2022-12-22T22:13:14.556Z,1.08
2022-12-22T22:15:41.617Z,1.00
2022-12-22T22:18:15.320Z,1.01
2022-12-22T22:20:42.388Z,0.99
2022-12-22T22:23:11.595Z,1.00
2022-12-22T22:25:38.529Z,1.06
2022-12-22T22:28:05.637Z,1.08
2022-12-22T22:30:32.466Z,1.10
2022-12-22T22:32:59.214Z,1.22
2022-12-22T22:35:27.016Z,1.17
2022-12-22T22:37:53.833Z,1.23
2022-12-22T22:40:22.605Z,1.25
2022-12-22T22:42:49.607Z,1.25
2022-12-22T22:45:24.092Z,1.33
2022-12-22T22:47:52.145Z,1.28
2022-12-22T22:50:20.354Z,1.27
2022-12-22T22:52:47.740Z,1.25
2022-12-22T22:55:14.948Z,1.22
2022-12-22T22:57:42.677Z,1.25
2022-12-22T23:00:11.874Z,1.30
2022-12-22T23:02:38.942Z,1.26
2022-12-22T23:05:06.377Z,1.30
2022-12-22T23:07:34.130Z,1.32
2022-12-22T23:10:00.903Z,1.34
2022-12-22T23:12:27.812Z,1.31
2022-12-22T23:14:54.646Z,1.33
2022-12-22T23:17:21.485Z,1.36
2022-12-22T23:19:48.259Z,1.36
2022-12-22T23:22:15.663Z,1.35
2022-12-22T23:24:42.572Z,1.38
2022-12-22T23:27:09.353Z,1.39
2022-12-22T23:29:37.411Z,1.42
2022-12-22T23:32:05.179Z,1.36
2022-12-22T23:34:32.108Z,1.39
2022-12-22T23:36:59.058Z,1.39
2022-12-22T23:39:25.913Z,1.48
2022-12-22T23:41:52.679Z,1.43
2022-12-22T23:44:19.539Z,1.49
2022-12-22T23:46:46.324Z,1.49
2022-12-22T23:49:13.087Z,1.41
2022-12-22T23:51:39.983Z,1.45
2022-12-22T23:54:06.817Z,1.49
2022-12-22T23:56:33.661Z,1.49
2022-12-22T23:59:00.534Z,1.57
